Time;durP1;ratioP1;P1;durP2;ratioP2;P2;SDS_P1;SDS_P2;PMS_P1;PMS_P2;Temp;Humidity;BMP_temperature;BMP_pressure;BME280_temperature;BME280_humidity;BME280_pressure;Samples;Min_cycle;Max_cycle;Signal;HPM_P1;HPM_P2
2023/12/22 00:00:37;;;;;;;1.53;1.43;;;19.00;43.90;;;;;;4993615;28;22565;-79
2023/12/22 00:03:03;;;;;;;2.43;1.87;;;19.00;43.90;;;;;;4994807;28;20281;-79
2023/12/22 00:05:28;;;;;;;1.60;1.47;;;18.90;43.70;;;;;;4989748;28;20234;-80
2023/12/22 00:07:54;;;;;;;1.50;1.40;;;19.00;43.80;;;;;;4985439;28;20224;-80
2023/12/22 00:10:19;;;;;;;1.77;1.50;;;19.00;43.80;;;;;;4978361;28;20241;-80
2023/12/22 00:12:45;;;;;;;1.53;1.43;;;19.00;43.80;;;;;;4982717;28;20329;-80
2023/12/22 00:15:10;;;;;;;1.60;1.50;;;19.00;43.80;;;;;;4986386;28;20698;-80
2023/12/22 00:17:36;;;;;;;1.70;1.60;;;19.00;43.80;;;;;;4992255;28;20223;-80
2023/12/22 00:20:03;;;;;;;1.67;1.57;;;19.00;43.80;;;;;;4986445;28;20235;-80
2023/12/22 00:22:29;;;;;;;1.70;1.50;;;18.90;43.70;;;;;;4978608;28;21338;-80
2023/12/22 00:24:55;;;;;;;1.37;1.27;;;18.90;43.70;;;;;;4986460;28;20420;-80
2023/12/22 00:27:20;;;;;;;1.30;1.17;;;18.90;43.70;;;;;;4991999;28;20475;-76
2023/12/22 00:29:46;;;;;;;2.07;1.90;;;18.90;43.70;;;;;;4991119;28;20224;-76
2023/12/22 00:32:11;;;;;;;1.30;1.20;;;18.90;43.80;;;;;;4967042;28;20220;-76
2023/12/22 00:34:37;;;;;;;1.33;1.20;;;19.00;43.80;;;;;;4974597;28;20215;-76
2023/12/22 00:37:04;;;;;;;1.67;1.57;;;18.90;43.70;;;;;;4997619;28;20639;-76
2023/12/22 00:39:30;;;;;;;1.57;1.47;;;18.90;43.70;;;;;;4975471;28;20231;-76
2023/12/22 00:41:56;;;;;;;1.27;1.17;;;19.00;43.80;;;;;;4968603;28;20520;-76
2023/12/22 00:44:22;;;;;;;1.73;1.63;;;18.90;43.70;;;;;;4986771;28;20475;-76
2023/12/22 00:46:47;;;;;;;1.50;1.37;;;19.00;43.80;;;;;;4964684;28;20225;-76
2023/12/22 00:49:13;;;;;;;1.40;1.30;;;18.90;43.70;;;;;;4984822;28;20215;-75
2023/12/22 00:51:38;;;;;;;1.40;1.30;;;18.90;43.80;;;;;;4971826;28;20279;-76
2023/12/22 00:54:04;;;;;;;1.70;1.30;;;18.90;43.80;;;;;;4984054;28;20227;-76
2023/12/22 00:56:29;;;;;;;1.30;1.20;;;18.90;43.80;;;;;;4981883;28;20243;-76
2023/12/22 00:58:55;;;;;;;1.90;1.43;;;18.90;43.80;;;;;;4981667;28;20561;-76
2023/12/22 01:01:21;;;;;;;1.40;1.30;;;18.90;43.80;;;;;;4976395;28;20573;-75
2023/12/22 01:03:46;;;;;;;1.60;1.43;;;18.90;43.80;;;;;;4979519;28;20327;-76
2023/12/22 01:06:12;;;;;;;1.60;1.50;;;18.90;43.80;;;;;;4970407;28;20732;-76
2023/12/22 01:08:38;;;;;;;1.50;1.40;;;18.90;43.80;;;;;;4986218;28;20216;-74
2023/12/22 01:11:04;;;;;;;2.10;1.40;;;18.90;43.80;;;;;;4985726;28;20993;-75
2023/12/22 01:13:29;;;;;;;1.40;1.10;;;18.90;43.80;;;;;;4988204;28;20584;-75
2023/12/22 01:15:55;;;;;;;1.27;1.17;;;18.90;43.70;;;;;;4969291;28;20613;-76
2023/12/22 01:18:20;;;;;;;1.23;1.13;;;18.90;43.80;;;;;;4985015;28;20227;-76
2023/12/22 01:20:46;;;;;;;1.20;1.10;;;18.90;43.70;;;;;;4969062;28;20256;-75
2023/12/22 01:23:11;;;;;;;1.67;1.50;;;18.90;43.70;;;;;;4989874;28;20968;-75
2023/12/22 01:25:37;;;;;;;1.20;1.10;;;18.90;43.70;;;;;;4987432;28;20319;-74
2023/12/22 01:28:03;;;;;;;1.33;1.20;;;18.90;43.70;;;;;;4962848;28;20238;-76
2023/12/22 01:30:28;;;;;;;1.43;1.33;;;18.90;43.70;;;;;;4969565;28;20315;-75
2023/12/22 01:32:54;;;;;;;1.47;1.37;;;18.90;43.70;;;;;;4979409;28;20273;-74
2023/12/22 01:35:19;;;;;;;1.93;1.07;;;18.90;43.70;;;;;;4985018;28;20231;-75
2023/12/22 01:37:47;;;;;;;1.37;1.23;;;18.90;43.70;;;;;;4988411;28;20216;-75
2023/12/22 01:40:12;;;;;;;1.33;1.23;;;18.90;43.70;;;;;;4966510;28;20279;-74
2023/12/22 01:42:39;;;;;;;1.40;1.17;;;18.90;43.70;;;;;;4985399;28;21044;-75
2023/12/22 01:45:06;;;;;;;1.50;1.07;;;18.90;43.70;;;;;;4974225;28;20223;-76
2023/12/22 01:47:31;;;;;;;1.10;1.00;;;18.90;43.70;;;;;;4988327;28;20584;-77
2023/12/22 01:49:57;;;;;;;1.13;1.03;;;18.90;43.70;;;;;;4981757;28;20922;-77
2023/12/22 01:52:23;;;;;;;1.40;1.30;;;18.90;43.70;;;;;;4992005;28;20219;-77
2023/12/22 01:54:50;;;;;;;1.03;0.93;;;18.90;43.70;;;;;;4959945;28;20713;-77
2023/12/22 01:57:17;;;;;;;1.30;1.20;;;18.90;43.70;;;;;;4971121;28;20220;-77
2023/12/22 01:59:43;;;;;;;1.10;1.00;;;18.90;43.70;;;;;;4991987;28;20457;-77
2023/12/22 02:02:09;;;;;;;1.20;1.10;;;18.90;43.70;;;;;;4984140;28;20458;-77
2023/12/22 02:04:34;;;;;;;1.17;1.07;;;18.90;43.70;;;;;;4985915;28;20834;-77
2023/12/22 02:07:02;;;;;;;1.40;1.17;;;18.90;43.70;;;;;;4975455;28;20238;-77
2023/12/22 02:09:27;;;;;;;1.30;1.20;;;18.90;43.70;;;;;;4985093;28;20219;-77
2023/12/22 02:11:53;;;;;;;1.43;1.33;;;18.90;43.70;;;;;;4983149;28;20451;-77
2023/12/22 02:14:18;;;;;;;1.20;1.10;;;18.80;43.60;;;;;;4977737;28;20243;-77
2023/12/22 02:17:06;;;;;;;1.70;1.10;;;18.90;43.70;;;;;;4975669;28;20239;-77
2023/12/22 02:19:37;;;;;;;1.43;1.33;;;18.90;43.70;;;;;;4985280;28;20224;-77
2023/12/22 02:22:08;;;;;;;1.00;0.90;;;18.90;43.70;;;;;;4985964;28;20771;-77
2023/12/22 02:24:34;;;;;;;1.50;1.33;;;18.80;44.40;;;;;;4968140;28;20525;-77
2023/12/22 02:27:22;;;;;;;1.20;1.10;;;18.90;43.70;;;;;;4990882;28;20427;-77
2023/12/22 02:30:09;;;;;;;1.73;1.20;;;18.90;43.70;;;;;;4968484;28;20222;-77
2023/12/22 02:32:39;;;;;;;1.20;1.07;;;18.90;43.70;;;;;;4985589;28;20822;-77
2023/12/22 02:35:09;;;;;;;1.30;1.20;;;18.90;43.70;;;;;;4985045;28;20458;-77
2023/12/22 02:37:36;;;;;;;1.43;1.20;;;18.90;43.70;;;;;;4980985;28;20437;-77
2023/12/22 02:40:03;;;;;;;1.23;1.13;;;18.90;43.70;;;;;;4968613;28;20450;-77
2023/12/22 02:42:30;;;;;;;1.10;1.00;;;18.90;43.70;;;;;;4989722;28;20468;-77
2023/12/22 02:44:59;;;;;;;1.20;1.00;;;18.90;43.70;;;;;;4983143;28;20961;-76
2023/12/22 02:47:27;;;;;;;1.10;1.00;;;18.90;43.70;;;;;;4992564;28;20464;-77
2023/12/22 02:49:53;;;;;;;1.43;1.10;;;18.90;43.70;;;;;;4991273;28;20473;-76
2023/12/22 02:52:19;;;;;;;1.33;1.00;;;18.90;44.50;;;;;;4984196;28;20996;-76
2023/12/22 02:54:47;;;;;;;1.60;1.10;;;18.90;43.70;;;;;;4984726;28;20462;-76
2023/12/22 02:57:12;;;;;;;1.07;0.97;;;18.90;43.70;;;;;;4967354;28;20219;-75
2023/12/22 02:59:39;;;;;;;1.20;1.00;;;18.90;43.70;;;;;;4966869;28;20472;-75
2023/12/22 03:02:05;;;;;;;1.20;1.07;;;18.90;43.70;;;;;;4962507;28;20458;-76
2023/12/22 03:04:30;;;;;;;1.10;1.00;;;18.90;43.70;;;;;;4981272;28;20907;-76
2023/12/22 03:06:56;;;;;;;1.10;0.90;;;18.90;43.70;;;;;;4991418;28;20362;-76
2023/12/22 03:09:22;;;;;;;1.13;1.03;;;18.90;43.70;;;;;;4979620;28;20262;-77
2023/12/22 03:11:48;;;;;;;1.20;1.10;;;18.90;43.70;;;;;;4988172;28;20215;-77
2023/12/22 03:14:13;;;;;;;1.20;1.10;;;18.90;43.70;;;;;;4988390;28;20223;-77
2023/12/22 03:16:40;;;;;;;1.63;1.23;;;18.90;43.70;;;;;;4992598;28;20446;-77
2023/12/22 03:19:07;;;;;;;1.20;1.10;;;18.90;43.70;;;;;;4990986;28;20459;-77
2023/12/22 03:21:32;;;;;;;1.20;1.00;;;18.90;43.70;;;;;;4987722;28;20478;-77
2023/12/22 03:23:58;;;;;;;2.27;1.13;;;18.90;43.80;;;;;;4975529;28;20610;-77
2023/12/22 03:26:26;;;;;;;1.37;1.10;;;18.90;43.70;;;;;;4989203;28;20220;-77
2023/12/22 03:28:51;;;;;;;1.30;1.20;;;18.90;43.70;;;;;;4977485;28;20367;-76
2023/12/22 03:31:17;;;;;;;1.67;1.00;;;18.80;43.60;;;;;;4985037;28;20445;-77
2023/12/22 03:33:42;;;;;;;1.50;1.40;;;18.90;43.70;;;;;;4974550;28;20571;-77
2023/12/22 03:36:08;;;;;;;1.20;1.10;;;18.90;43.70;;;;;;4978923;28;20227;-77
2023/12/22 03:38:33;;;;;;;1.23;1.10;;;18.90;43.70;;;;;;4984499;28;22666;-77
2023/12/22 03:40:59;;;;;;;1.50;0.87;;;18.90;43.70;;;;;;4981613;28;20255;-77
2023/12/22 03:43:25;;;;;;;1.30;1.10;;;18.90;43.70;;;;;;4990754;28;20263;-77
2023/12/22 03:45:50;;;;;;;1.20;1.10;;;18.90;43.70;;;;;;4994442;28;20632;-77
2023/12/22 03:48:16;;;;;;;1.43;0.90;;;18.90;43.70;;;;;;4993190;28;20234;-77
2023/12/22 03:50:42;;;;;;;2.03;1.10;;;18.90;43.70;;;;;;4983660;28;20250;-77
2023/12/22 03:53:07;;;;;;;1.63;1.53;;;18.90;43.70;;;;;;4979966;28;20231;-77
2023/12/22 03:55:33;;;;;;;1.43;1.33;;;18.90;43.70;;;;;;4976339;28;20282;-77
2023/12/22 03:57:58;;;;;;;1.47;1.03;;;18.90;43.70;;;;;;4962099;28;20238;-77
2023/12/22 04:00:24;;;;;;;1.00;0.90;;;18.80;43.60;;;;;;4963055;28;20269;-76
2023/12/22 04:02:49;;;;;;;1.13;1.00;;;18.80;43.60;;;;;;4966138;28;20897;-76
2023/12/22 04:05:15;;;;;;;2.17;1.10;;;18.80;43.60;;;;;;4990532;28;20674;-77
2023/12/22 04:07:40;;;;;;;1.07;0.97;;;18.80;43.60;;;;;;4990433;28;20299;-77
2023/12/22 04:10:06;;;;;;;1.40;1.20;;;18.80;43.60;;;;;;4984066;28;20220;-77
2023/12/22 04:12:32;;;;;;;1.17;1.07;;;18.80;43.60;;;;;;4963732;28;20220;-77
2023/12/22 04:14:58;;;;;;;1.37;1.17;;;18.80;43.60;;;;;;4972211;28;21061;-77
2023/12/22 04:17:23;;;;;;;1.13;1.00;;;18.80;43.70;;;;;;4975087;28;20773;-77
2023/12/22 04:19:49;;;;;;;1.00;0.90;;;18.80;43.60;;;;;;4985335;28;20231;-77
2023/12/22 04:22:14;;;;;;;2.43;1.10;;;18.80;43.60;;;;;;4984248;28;20226;-76
2023/12/22 04:24:40;;;;;;;2.13;1.10;;;18.80;43.60;;;;;;4978494;28;20572;-77
2023/12/22 04:27:06;;;;;;;1.40;1.07;;;18.80;43.60;;;;;;4971710;28;20706;-77
2023/12/22 04:29:32;;;;;;;1.10;1.00;;;18.80;43.60;;;;;;4991142;28;20475;-77
2023/12/22 04:31:57;;;;;;;1.20;1.10;;;18.80;43.60;;;;;;4980090;28;20230;-77
2023/12/22 04:34:23;;;;;;;1.30;1.20;;;18.80;43.60;;;;;;4990914;28;20249;-77
2023/12/22 04:36:48;;;;;;;1.23;1.00;;;18.80;43.60;;;;;;4968746;28;20286;-77
2023/12/22 04:39:14;;;;;;;1.17;1.07;;;18.80;43.60;;;;;;4985916;28;20231;-77
2023/12/22 04:41:39;;;;;;;2.10;0.90;;;18.80;43.60;;;;;;4980491;28;20227;-76
2023/12/22 04:44:05;;;;;;;1.43;1.27;;;18.80;43.60;;;;;;4984086;28;20232;-76
2023/12/22 04:46:30;;;;;;;1.10;0.90;;;18.80;43.60;;;;;;4986503;28;20242;-76
2023/12/22 04:48:56;;;;;;;1.67;1.00;;;18.80;43.60;;;;;;4971439;28;20220;-76
2023/12/22 04:51:22;;;;;;;1.10;1.00;;;18.80;43.60;;;;;;4972607;28;20227;-76
2023/12/22 04:53:47;;;;;;;1.30;1.20;;;18.80;43.60;;;;;;4991288;28;20227;-76
2023/12/22 04:56:13;;;;;;;1.20;1.10;;;18.80;43.60;;;;;;4980671;28;20231;-76
2023/12/22 04:58:38;;;;;;;1.50;1.20;;;18.90;43.70;;;;;;4992120;28;20231;-76
2023/12/22 05:01:05;;;;;;;1.20;0.90;;;18.90;43.70;;;;;;4988585;28;20326;-76
2023/12/22 05:03:30;;;;;;;1.80;1.07;;;18.90;43.80;;;;;;4982721;28;20316;-77
2023/12/22 05:05:56;;;;;;;1.13;1.03;;;18.90;43.70;;;;;;4983247;28;20440;-77
2023/12/22 05:08:21;;;;;;;1.63;1.17;;;18.90;43.70;;;;;;4988226;28;20639;-77
2023/12/22 05:10:47;;;;;;;1.30;1.20;;;18.90;43.70;;;;;;4976276;28;20235;-77
2023/12/22 05:13:12;;;;;;;1.13;1.03;;;18.90;43.70;;;;;;4992489;28;20289;-76
2023/12/22 05:15:38;;;;;;;1.20;1.10;;;18.90;43.80;;;;;;4974048;28;20252;-76
2023/12/22 05:18:04;;;;;;;1.90;1.00;;;18.90;43.70;;;;;;4977115;28;20727;-76
2023/12/22 05:20:29;;;;;;;1.80;1.70;;;18.90;43.70;;;;;;4959307;28;20310;-76
2023/12/22 05:22:55;;;;;;;1.20;1.03;;;18.90;43.70;;;;;;4994103;28;20468;-76
2023/12/22 05:25:20;;;;;;;0.97;0.87;;;18.90;43.70;;;;;;4996687;28;20226;-76
2023/12/22 05:27:46;;;;;;;1.30;1.00;;;18.90;43.70;;;;;;4987185;28;20319;-76
2023/12/22 05:30:12;;;;;;;1.07;0.90;;;18.90;43.70;;;;;;4996612;28;20581;-76
2023/12/22 05:32:38;;;;;;;0.90;0.80;;;18.90;43.70;;;;;;4996362;28;20621;-75
2023/12/22 05:35:03;;;;;;;1.30;1.10;;;18.90;43.70;;;;;;4989455;28;20456;-75
2023/12/22 05:37:29;;;;;;;1.10;1.00;;;18.90;43.70;;;;;;4991748;28;20220;-75
2023/12/22 05:39:55;;;;;;;1.10;1.00;;;18.90;43.70;;;;;;4992130;28;20301;-75
2023/12/22 05:42:21;;;;;;;1.27;1.17;;;18.90;43.70;;;;;;4992262;28;20216;-75
2023/12/22 05:44:49;;;;;;;1.00;0.80;;;18.90;43.70;;;;;;4995548;28;20447;-75
2023/12/22 05:47:15;;;;;;;1.57;1.30;;;18.90;43.70;;;;;;4993139;28;20290;-76
2023/12/22 05:49:41;;;;;;;2.00;1.20;;;18.90;43.80;;;;;;4988951;28;20447;-76
2023/12/22 05:52:06;;;;;;;1.00;0.90;;;18.90;43.70;;;;;;4988605;28;20444;-75
2023/12/22 05:54:32;;;;;;;3.00;1.20;;;18.90;43.70;;;;;;4989580;28;20230;-75
2023/12/22 05:56:58;;;;;;;1.20;0.90;;;18.90;43.80;;;;;;4957325;28;20239;-75
2023/12/22 05:59:23;;;;;;;1.07;0.90;;;18.90;43.70;;;;;;4992550;28;20223;-75
2023/12/22 06:01:53;;;;;;;1.00;0.87;;;18.90;43.70;;;;;;4982836;28;20251;-75
2023/12/22 06:04:19;;;;;;;1.10;1.00;;;18.90;43.70;;;;;;4986387;28;20231;-75
2023/12/22 06:06:44;;;;;;;1.63;1.00;;;18.90;43.70;;;;;;4995428;28;20451;-75
2023/12/22 06:09:12;;;;;;;1.47;1.37;;;18.90;43.70;;;;;;4969130;28;20228;-75
2023/12/22 06:11:39;;;;;;;1.30;1.10;;;18.90;43.70;;;;;;4977630;28;20710;-74
2023/12/22 06:14:05;;;;;;;1.30;0.90;;;18.90;43.70;;;;;;4993797;28;20484;-74
2023/12/22 06:16:31;;;;;;;1.00;0.90;;;18.90;43.70;;;;;;4985386;28;20510;-75
2023/12/22 06:18:57;;;;;;;0.80;0.70;;;18.90;43.70;;;;;;4972222;28;20764;-75
2023/12/22 06:21:22;;;;;;;1.20;0.90;;;18.90;43.70;;;;;;4994098;28;20912;-75
2023/12/22 06:23:48;;;;;;;1.03;0.80;;;18.90;43.70;;;;;;4995433;28;20246;-75
2023/12/22 06:26:13;;;;;;;1.63;1.47;;;18.90;43.70;;;;;;4995262;28;20990;-75
2023/12/22 06:28:39;;;;;;;0.90;0.80;;;18.90;43.70;;;;;;4988992;28;20227;-76
2023/12/22 06:31:18;;;;;;;2.73;0.90;;;18.90;43.70;;;;;;4997646;28;20985;-76
2023/12/22 06:33:43;;;;;;;1.13;1.03;;;18.90;43.70;;;;;;4988208;28;20895;-76
2023/12/22 06:36:21;;;;;;;1.37;1.17;;;18.90;43.70;;;;;;4982867;28;20497;-76
2023/12/22 06:38:48;;;;;;;1.20;1.10;;;18.90;43.70;;;;;;4997392;28;20280;-76
2023/12/22 06:41:27;;;;;;;1.47;1.07;;;18.90;43.70;;;;;;4995695;28;20436;-74
2023/12/22 06:43:53;;;;;;;1.60;1.00;;;18.90;43.70;;;;;;4991875;28;20475;-75
2023/12/22 06:46:20;;;;;;;1.10;0.90;;;18.90;43.70;;;;;;4997158;28;20436;-75
2023/12/22 06:48:46;;;;;;;1.40;1.00;;;18.90;43.70;;;;;;5002209;28;20215;-75
2023/12/22 06:51:19;;;;;;;1.20;1.10;;;18.90;43.70;;;;;;4986769;28;20533;-75
2023/12/22 06:53:45;;;;;;;1.20;1.10;;;18.90;43.70;;;;;;4987715;28;20580;-75
2023/12/22 06:56:21;;;;;;;1.17;0.90;;;18.90;43.70;;;;;;4994007;28;20435;-75
2023/12/22 06:58:48;;;;;;;1.47;0.80;;;19.00;43.80;;;;;;4990273;28;20459;-76
2023/12/22 07:01:21;;;;;;;1.03;0.93;;;18.90;43.70;;;;;;4979825;28;20436;-76
2023/12/22 07:03:48;;;;;;;1.60;1.00;;;18.90;43.70;;;;;;4977919;28;20533;-76
2023/12/22 07:06:17;;;;;;;1.10;1.00;;;18.90;43.70;;;;;;5014423;28;20932;-76
2023/12/22 07:09:14;;;;;;;0.80;0.80;;;18.90;43.70;;;;;;4988938;28;20484;-76
2023/12/22 07:11:41;;;;;;;1.23;0.90;;;18.90;43.70;;;;;;4990656;28;20546;-76
2023/12/22 07:14:07;;;;;;;0.97;0.87;;;19.00;43.80;;;;;;4981309;28;20499;-76
2023/12/22 07:16:33;;;;;;;1.07;0.90;;;19.00;43.80;;;;;;4975279;28;20528;-76
2023/12/22 07:18:59;;;;;;;1.43;1.30;;;18.90;43.70;;;;;;4987017;28;20232;-76
2023/12/22 07:21:25;;;;;;;1.23;1.10;;;19.00;43.80;;;;;;4997309;28;20841;-76
2023/12/22 07:23:51;;;;;;;1.20;1.10;;;19.00;43.90;;;;;;4987741;28;20604;-76
2023/12/22 07:26:17;;;;;;;1.53;1.00;;;19.00;43.80;;;;;;4990881;28;20445;-76
2023/12/22 07:28:42;;;;;;;1.77;1.50;;;19.00;43.90;;;;;;4984996;28;20232;-76
2023/12/22 07:31:08;;;;;;;1.87;1.10;;;18.90;43.70;;;;;;4967322;28;20717;-80
2023/12/22 07:33:33;;;;;;;1.20;0.90;;;19.00;43.80;;;;;;4996532;28;20685;-77
2023/12/22 07:35:59;;;;;;;2.33;1.33;;;19.00;43.80;;;;;;4974254;28;20305;-76
2023/12/22 07:38:24;;;;;;;1.60;1.07;;;19.00;43.80;;;;;;4967706;28;20212;-80
2023/12/22 07:40:50;;;;;;;1.20;1.10;;;19.00;43.80;;;;;;4980062;28;20809;-76
2023/12/22 07:43:16;;;;;;;1.10;1.00;;;19.00;43.80;;;;;;4994317;28;20228;-80
2023/12/22 07:45:41;;;;;;;1.20;1.10;;;19.00;43.80;;;;;;4987293;28;20700;-81
2023/12/22 07:48:07;;;;;;;1.20;1.10;;;19.00;43.80;;;;;;4976323;28;20227;-74
2023/12/22 07:50:33;;;;;;;1.20;1.10;;;19.00;43.80;;;;;;4983414;28;20224;-75
2023/12/22 07:52:59;;;;;;;5.20;1.30;;;19.00;43.80;;;;;;4980759;28;20224;-75
2023/12/22 07:55:24;;;;;;;1.30;1.13;;;19.00;43.80;;;;;;4991090;28;20966;-75
2023/12/22 07:57:50;;;;;;;1.50;1.40;;;19.00;43.80;;;;;;4993400;28;20255;-75
2023/12/22 08:00:19;;;;;;;1.10;1.00;;;19.00;43.80;;;;;;4991010;28;20675;-75
2023/12/22 08:02:45;;;;;;;1.63;1.27;;;19.00;44.60;;;;;;4991021;28;20703;-76
2023/12/22 08:05:11;;;;;;;1.30;1.10;;;19.00;43.80;;;;;;4970998;28;20434;-75
2023/12/22 08:07:36;;;;;;;2.87;1.30;;;19.00;43.80;;;;;;4984160;28;20220;-75
2023/12/22 08:10:03;;;;;;;1.50;1.20;;;19.00;43.80;;;;;;4967128;28;20431;-74
2023/12/22 08:12:29;;;;;;;1.40;1.30;;;19.00;43.80;;;;;;4993091;28;20219;-74
2023/12/22 08:14:54;;;;;;;1.40;1.20;;;19.00;43.80;;;;;;4985770;28;20445;-73
2023/12/22 08:17:20;;;;;;;1.30;1.20;;;19.00;43.80;;;;;;4984253;28;20211;-74
2023/12/22 08:19:46;;;;;;;1.40;1.23;;;19.00;43.80;;;;;;4978482;28;20224;-74
2023/12/22 08:22:14;;;;;;;1.70;1.60;;;19.00;43.80;;;;;;5009292;28;20698;-73
2023/12/22 08:24:41;;;;;;;1.33;1.23;;;19.00;43.80;;;;;;4989855;28;20231;-73
2023/12/22 08:27:07;;;;;;;1.80;1.70;;;19.00;43.80;;;;;;4998421;28;20950;-74
2023/12/22 08:29:33;;;;;;;1.60;1.20;;;19.00;43.80;;;;;;4983275;28;20428;-73
2023/12/22 08:31:58;;;;;;;2.17;1.33;;;19.00;43.80;;;;;;4986440;28;20215;-73
2023/12/22 08:34:24;;;;;;;1.47;1.37;;;19.00;43.80;;;;;;4993630;28;20685;-73
2023/12/22 08:36:50;;;;;;;2.17;1.57;;;19.00;43.80;;;;;;4971215;28;20699;-74
2023/12/22 08:39:15;;;;;;;1.80;1.70;;;19.00;43.80;;;;;;4979211;28;20290;-75
2023/12/22 08:41:42;;;;;;;1.57;1.47;;;19.00;43.80;;;;;;4994831;28;20270;-76
2023/12/22 08:44:08;;;;;;;1.50;1.30;;;19.00;43.80;;;;;;4993337;28;20703;-74
2023/12/22 08:46:34;;;;;;;1.57;1.47;;;19.00;43.80;;;;;;4990645;28;21469;-77
2023/12/22 08:49:00;;;;;;;1.50;1.40;;;19.00;43.80;;;;;;4967678;28;20820;-76
2023/12/22 08:51:26;;;;;;;3.10;1.70;;;19.00;43.80;;;;;;4984560;28;20439;-76
2023/12/22 08:53:54;;;;;;;1.63;1.37;;;19.00;43.80;;;;;;4989259;28;20235;-77
2023/12/22 08:56:23;;;;;;;1.80;1.40;;;19.00;43.80;;;;;;4985389;28;21012;-77
2023/12/22 08:58:51;;;;;;;1.60;1.50;;;19.00;43.80;;;;;;4966888;28;21597;-76
2023/12/22 09:01:18;;;;;;;1.80;1.50;;;19.00;43.80;;;;;;4975869;28;20435;-76
2023/12/22 09:03:46;;;;;;;1.60;1.50;;;19.00;43.80;;;;;;4991222;28;20445;-76
2023/12/22 09:06:15;;;;;;;1.90;1.57;;;19.00;43.80;;;;;;4976115;28;20456;-77
2023/12/22 09:08:41;;;;;;;1.40;1.30;;;19.00;43.80;;;;;;4997331;28;20521;-76
2023/12/22 09:11:07;;;;;;;2.93;1.60;;;19.00;43.80;;;;;;4998844;28;20445;-74
2023/12/22 09:13:35;;;;;;;1.70;1.50;;;19.00;43.80;;;;;;4991148;28;20458;-75
2023/12/22 09:16:02;;;;;;;1.90;1.70;;;19.00;43.80;;;;;;4987415;28;20254;-76
2023/12/22 09:18:27;;;;;;;2.80;1.50;;;19.00;43.80;;;;;;4966242;28;20448;-75
2023/12/22 09:20:53;;;;;;;2.47;1.90;;;19.00;43.80;;;;;;4974253;28;20446;-75
2023/12/22 09:23:19;;;;;;;1.70;1.60;;;19.00;43.80;;;;;;4974538;28;20242;-74
2023/12/22 09:25:45;;;;;;;2.70;1.30;;;19.00;43.80;;;;;;4975970;28;20210;-77
2023/12/22 09:28:11;;;;;;;1.60;1.50;;;19.00;43.80;;;;;;4992878;28;20441;-75
2023/12/22 09:30:36;;;;;;;2.17;1.53;;;19.00;43.80;;;;;;4991641;28;20567;-78
2023/12/22 09:33:02;;;;;;;2.07;1.60;;;19.00;43.80;;;;;;4989256;28;20224;-78
2023/12/22 09:35:27;;;;;;;1.80;1.70;;;19.00;43.80;;;;;;4987007;28;20302;-77
2023/12/22 09:37:53;;;;;;;1.60;1.50;;;19.00;43.80;;;;;;4988773;28;20311;-76
2023/12/22 09:40:21;;;;;;;1.57;1.47;;;19.00;43.80;;;;;;4971391;28;20227;-74
2023/12/22 09:42:47;;;;;;;3.83;1.43;;;19.00;43.80;;;;;;4977517;28;20436;-77
2023/12/22 09:45:15;;;;;;;2.23;1.73;;;19.00;43.80;;;;;;4972049;28;20417;-77
2023/12/22 09:47:44;;;;;;;2.40;1.77;;;19.00;43.80;;;;;;4992934;28;20794;-78
2023/12/22 09:50:10;;;;;;;1.90;1.70;;;19.00;43.80;;;;;;4972511;28;20420;-78
2023/12/22 09:52:37;;;;;;;3.10;1.83;;;19.00;43.80;;;;;;4979521;28;20469;-78
2023/12/22 09:55:03;;;;;;;8.17;2.23;;;19.00;43.80;;;;;;4980737;28;20223;-78
2023/12/22 09:57:30;;;;;;;1.70;1.57;;;19.00;43.90;;;;;;4992722;28;20523;-79
2023/12/22 09:59:58;;;;;;;3.57;1.87;;;19.00;43.80;;;;;;4996362;28;20474;-78
2023/12/22 10:02:27;;;;;;;2.00;1.90;;;19.10;43.80;;;;;;4979380;28;20429;-80
2023/12/22 10:04:53;;;;;;;3.23;2.93;;;19.00;43.80;;;;;;4984753;28;20526;-78
2023/12/22 10:07:20;;;;;;;2.33;2.13;;;19.00;43.80;;;;;;4990737;28;22407;-79
2023/12/22 10:09:47;;;;;;;2.33;2.13;;;19.00;43.80;;;;;;4985936;28;20601;-79
2023/12/22 10:12:14;;;;;;;2.00;1.90;;;19.10;43.90;;;;;;4990681;28;20859;-79
2023/12/22 10:14:41;;;;;;;6.07;3.30;;;19.00;43.80;;;;;;4999008;28;20539;-80
2023/12/22 10:17:07;;;;;;;10.33;2.40;;;19.10;43.90;;;;;;4982352;28;20975;-80
2023/12/22 10:19:32;;;;;;;5.33;2.43;;;19.10;43.90;;;;;;4997355;28;20534;-80
2023/12/22 10:21:58;;;;;;;4.17;2.43;;;19.10;43.80;;;;;;4992918;28;20243;-79
2023/12/22 10:24:43;;;;;;;2.80;2.50;;;19.10;43.90;;;;;;4981031;28;20915;-81
2023/12/22 10:27:10;;;;;;;2.40;2.20;;;19.10;43.90;;;;;;4991512;28;20228;-82
2023/12/22 10:29:36;;;;;;;2.43;2.23;;;19.10;43.90;;;;;;4996482;28;20519;-80
2023/12/22 10:32:03;;;;;;;4.20;2.10;;;19.10;43.90;;;;;;4965365;28;21066;-80
2023/12/22 10:34:32;;;;;;;2.40;2.00;;;19.10;43.90;;;;;;4991328;28;20220;-82
2023/12/22 10:37:01;;;;;;;3.97;2.83;;;19.10;43.90;;;;;;5004601;28;21035;-87
2023/12/22 10:39:31;;;;;;;3.43;2.33;;;19.10;43.80;;;;;;4988127;28;20456;-85
2023/12/22 10:42:00;;;;;;;3.60;2.73;;;19.10;43.90;;;;;;4990199;28;20461;-82
2023/12/22 10:44:26;;;;;;;3.17;2.57;;;19.10;44.70;;;;;;4986071;28;20968;-82
2023/12/22 10:46:53;;;;;;;3.50;2.63;;;19.10;43.90;;;;;;4961573;28;20490;-77
2023/12/22 10:49:19;;;;;;;3.80;2.77;;;19.10;43.90;;;;;;4951038;28;21175;-77
2023/12/22 10:51:45;;;;;;;3.73;2.77;;;19.10;43.90;;;;;;4977393;28;20453;-78
2023/12/22 10:54:10;;;;;;;3.40;3.10;;;19.10;43.90;;;;;;4986831;28;20227;-77
2023/12/22 10:56:36;;;;;;;3.07;2.43;;;19.10;44.00;;;;;;4988963;28;20218;-77
2023/12/22 10:59:06;;;;;;;2.73;2.53;;;19.10;43.90;;;;;;4997019;28;20252;-76
2023/12/22 11:01:38;;;;;;;5.50;2.83;;;19.10;44.00;;;;;;4986193;28;20298;-76
2023/12/22 11:04:06;;;;;;;2.70;2.50;;;19.10;44.00;;;;;;4979286;28;20486;-76
2023/12/22 11:06:35;;;;;;;3.90;2.10;;;19.10;44.20;;;;;;4996721;28;20475;-75
2023/12/22 11:09:09;;;;;;;2.63;2.43;;;19.10;44.60;;;;;;4984441;28;20453;-76
2023/12/22 11:11:36;;;;;;;2.37;2.17;;;19.10;44.10;;;;;;4984315;28;20454;-76
2023/12/22 13:26:23;;;;;;;1.50;1.40;;;19.10;44.50;;;;;;4979891;28;20535;-77
2023/12/22 13:28:49;;;;;;;2.20;1.70;;;19.10;44.50;;;;;;4982636;28;22862;-80
2023/12/22 13:31:17;;;;;;;1.60;1.50;;;19.20;44.60;;;;;;4973886;28;20962;-80
2023/12/22 13:33:44;;;;;;;1.73;1.63;;;19.20;44.60;;;;;;4962200;28;20651;-80
2023/12/22 13:36:09;;;;;;;1.33;1.20;;;19.20;44.60;;;;;;4975738;28;20836;-80
2023/12/22 13:38:35;;;;;;;1.47;1.30;;;19.20;44.60;;;;;;4965250;28;20425;-80
2023/12/22 13:41:02;;;;;;;1.40;1.30;;;19.20;44.60;;;;;;5011469;28;20228;-80
2023/12/22 13:43:29;;;;;;;1.57;1.47;;;19.20;45.30;;;;;;4978038;28;20630;-80
2023/12/22 13:45:55;;;;;;;2.27;1.53;;;19.20;44.60;;;;;;4970799;28;20444;-79
2023/12/22 13:48:20;;;;;;;1.30;1.20;;;19.20;44.50;;;;;;4979655;28;21273;-79
2023/12/22 13:50:56;;;;;;;1.50;1.30;;;19.20;44.60;;;;;;4978094;28;20246;-79
2023/12/22 13:53:22;;;;;;;1.90;1.80;;;19.20;44.50;;;;;;4984780;28;20216;-77
2023/12/22 13:55:58;;;;;;;1.53;1.43;;;19.20;44.60;;;;;;4988308;28;20442;-78
2023/12/22 13:58:24;;;;;;;1.63;1.53;;;19.20;44.60;;;;;;4977789;28;20489;-78
2023/12/22 14:00:50;;;;;;;1.90;1.80;;;19.20;44.60;;;;;;4992642;28;20469;-78
2023/12/22 14:03:16;;;;;;;1.93;1.47;;;19.20;44.60;;;;;;4976491;28;20488;-78
2023/12/22 14:05:43;;;;;;;1.60;1.50;;;19.20;44.70;;;;;;4982522;28;20460;-78
2023/12/22 14:08:08;;;;;;;1.60;1.50;;;19.20;44.60;;;;;;4974446;28;20416;-78
2023/12/22 14:10:34;;;;;;;1.27;1.17;;;19.20;44.60;;;;;;4990410;28;20464;-78
2023/12/22 14:13:00;;;;;;;1.47;1.37;;;19.20;44.60;;;;;;4985384;28;20266;-79
2023/12/22 14:15:28;;;;;;;1.80;1.70;;;19.20;44.60;;;;;;4984594;28;20216;-79
2023/12/22 14:17:54;;;;;;;1.83;1.73;;;19.30;44.70;;;;;;4984792;28;21276;-79
2023/12/22 14:20:20;;;;;;;1.60;1.50;;;19.20;44.70;;;;;;4989875;28;20452;-79
2023/12/22 14:22:46;;;;;;;1.43;1.30;;;19.20;44.60;;;;;;4950553;28;20228;-79
2023/12/22 14:25:11;;;;;;;1.67;1.57;;;19.30;44.70;;;;;;4992272;28;20251;-79
2023/12/22 14:27:37;;;;;;;1.43;1.33;;;19.30;44.80;;;;;;4966783;28;20267;-79
2023/12/22 14:30:03;;;;;;;2.07;1.50;;;19.30;44.70;;;;;;4970889;28;20223;-79
2023/12/22 14:32:29;;;;;;;1.97;1.87;;;19.20;44.70;;;;;;4966703;28;20285;-78
2023/12/22 14:34:55;;;;;;;2.13;1.90;;;19.20;44.60;;;;;;4977369;28;20724;-79
2023/12/22 14:37:21;;;;;;;6.80;6.07;;;19.30;44.80;;;;;;4972812;28;20475;-78
2023/12/22 14:39:49;;;;;;;2.17;1.97;;;19.30;44.70;;;;;;4981108;28;20270;-80
2023/12/22 14:42:15;;;;;;;1.70;1.60;;;19.30;44.70;;;;;;4990717;28;20219;-80
2023/12/22 14:44:41;;;;;;;2.37;2.17;;;19.20;44.60;;;;;;4965031;28;20502;-80
2023/12/22 14:47:07;;;;;;;2.13;1.83;;;19.20;44.60;;;;;;4985593;28;20549;-76
2023/12/22 14:49:32;;;;;;;2.20;2.10;;;19.20;44.70;;;;;;4994335;28;20444;-79
2023/12/22 14:51:59;;;;;;;2.10;2.00;;;19.30;44.70;;;;;;4983968;28;20220;-78
2023/12/22 14:54:25;;;;;;;3.17;2.50;;;19.30;44.80;;;;;;4994056;28;20795;-77
2023/12/22 14:56:51;;;;;;;2.27;2.07;;;19.30;44.70;;;;;;4970416;28;20840;-78